Terminal Aerodrome Forecast
Issued by NWS

Home | Current Version | Previous Version | Text Only | Print | Product List | Glossary On
Versions: 1 2 3 4 5 6 7 8 9 10 11 12 13 14 15 16
000
FTUS41 KCAR 022328
TAFBHB
TAF
KBHB 022328Z 0300/0324 24006KT P6SM SCT200
     FM030400 26006KT P6SM SCT050
     FM030800 28004KT 2SM BR SCT008
     FM031000 32006KT P6SM SCT050
     FM031400 36008KT P6SM SCT050
      AMD LTD TO CLD VIS AND WIND=

USA.gov is the U.S. government's official web portal to all federal, state and local government web resources and services.